Simmesport, Louisiana
Current Conditions -  °F | °C
As of 9:55 PM on Wednesday 22 Oct 2014 (Local Time) from KHZR Reporting Station
Clear Clear  
Wind Chill: 60°   Ceiling: Unl
Heat Index: 60°   Visibility: 10mi
Dew Point: 54°   Wind: 5mph
Humidity: 78%   Direction: 30°NNE
Pressure: 30.1"   Gusts: NA
Location:  30.98°N, 91.8°W
Report Text: KHZR 230255Z AUTO 03004KT 10SM CLR 16/12 A3010 RMK AO2 T01580120
Loading
Personal Weather Stations






























Interactive Weather Map
Tropical Storm Tracking
New forecast layout! Learn more

10-Day Weather Forecast

Advertisements
Track Severe Weather on mobile